Schedule Details

Flight Number: ASX324X
Departure: Lodz (EPLL) at 21:30Z
Arrival: Gdansk im. Lecha Walesy (EPGD) at 22:30Z
Route: ADOXO N133 GRUDA Z95 OSLOG

Weather Information
EPLL 180630Z 31004KT 280V340 8000 -SN BKN008 BKN011 M00/M02 Q1025
EPGD 180630Z 29002KT 8000 SCT041 M03/M04 Q1026

Schedule Frequency

Route Map